sensor_id;sensor_type;location;lat;lon;timestamp;temperature;humidity
65470;DHT22;52067;50.710;14.492;2022-11-20T00:01:13;-7.12;86.03
65470;DHT22;52067;50.710;14.492;2022-11-20T00:03:39;-7.02;85.95
65470;DHT22;52067;50.710;14.492;2022-11-20T00:06:06;-7.10;85.76
65470;DHT22;52067;50.710;14.492;2022-11-20T00:08:32;-7.03;85.83
65470;DHT22;52067;50.710;14.492;2022-11-20T00:11:03;-7.10;85.67
65470;DHT22;52067;50.710;14.492;2022-11-20T00:13:29;-7.19;85.58
65470;DHT22;52067;50.710;14.492;2022-11-20T00:15:58;-7.24;85.56
65470;DHT22;52067;50.710;14.492;2022-11-20T00:18:24;-7.24;85.88
65470;DHT22;52067;50.710;14.492;2022-11-20T00:20:49;-7.18;86.35
65470;DHT22;52067;50.710;14.492;2022-11-20T00:23:15;-7.15;86.58
65470;DHT22;52067;50.710;14.492;2022-11-20T00:25:40;-7.13;86.26
65470;DHT22;52067;50.710;14.492;2022-11-20T00:28:05;-7.09;85.75
65470;DHT22;52067;50.710;14.492;2022-11-20T00:30:31;-7.30;85.92
65470;DHT22;52067;50.710;14.492;2022-11-20T00:32:56;-7.18;86.07
65470;DHT22;52067;50.710;14.492;2022-11-20T00:35:23;-7.34;86.38
65470;DHT22;52067;50.710;14.492;2022-11-20T00:37:48;-7.39;86.65
65470;DHT22;52067;50.710;14.492;2022-11-20T00:40:14;-7.39;86.50
65470;DHT22;52067;50.710;14.492;2022-11-20T00:42:39;-7.26;86.28
65470;DHT22;52067;50.710;14.492;2022-11-20T00:45:05;-7.16;86.38
65470;DHT22;52067;50.710;14.492;2022-11-20T00:47:30;-7.20;86.14
65470;DHT22;52067;50.710;14.492;2022-11-20T00:49:55;-7.27;87.35
65470;DHT22;52067;50.710;14.492;2022-11-20T00:52:21;-7.24;86.79
65470;DHT22;52067;50.710;14.492;2022-11-20T00:54:46;-7.15;86.74
65470;DHT22;52067;50.710;14.492;2022-11-20T00:57:11;-6.96;86.20
65470;DHT22;52067;50.710;14.492;2022-11-20T00:59:37;-6.98;85.96
65470;DHT22;52067;50.710;14.492;2022-11-20T01:02:02;-6.98;86.41
65470;DHT22;52067;50.710;14.492;2022-11-20T01:04:27;-7.06;86.64
65470;DHT22;52067;50.710;14.492;2022-11-20T01:06:53;-7.43;88.04
65470;DHT22;52067;50.710;14.492;2022-11-20T01:09:18;-7.18;88.39
65470;DHT22;52067;50.710;14.492;2022-11-20T01:11:44;-6.99;87.13
65470;DHT22;52067;50.710;14.492;2022-11-20T01:14:15;-6.82;86.17
65470;DHT22;52067;50.710;14.492;2022-11-20T01:16:44;-6.72;86.07
65470;DHT22;52067;50.710;14.492;2022-11-20T01:19:12;-6.67;85.65
65470;DHT22;52067;50.710;14.492;2022-11-20T01:21:41;-6.78;85.03
65470;DHT22;52067;50.710;14.492;2022-11-20T01:24:10;-6.78;84.91
65470;DHT22;52067;50.710;14.492;2022-11-20T01:26:38;-6.89;85.31
65470;DHT22;52067;50.710;14.492;2022-11-20T01:29:05;-6.91;86.21
65470;DHT22;52067;50.710;14.492;2022-11-20T01:31:36;-6.81;85.28
65470;DHT22;52067;50.710;14.492;2022-11-20T01:34:06;-6.80;85.25
65470;DHT22;52067;50.710;14.492;2022-11-20T01:36:33;-6.75;85.80
65470;DHT22;52067;50.710;14.492;2022-11-20T01:39:05;-6.68;86.03
65470;DHT22;52067;50.710;14.492;2022-11-20T01:41:33;-6.71;86.31
65470;DHT22;52067;50.710;14.492;2022-11-20T01:44:19;-6.58;86.59
65470;DHT22;52067;50.710;14.492;2022-11-20T01:47:05;-6.65;87.07
65470;DHT22;52067;50.710;14.492;2022-11-20T01:49:54;-6.71;88.32
65470;DHT22;52067;50.710;14.492;2022-11-20T01:52:28;-6.64;87.85
65470;DHT22;52067;50.710;14.492;2022-11-20T01:55:22;-6.68;87.40
65470;DHT22;52067;50.710;14.492;2022-11-20T01:57:49;-7.24;88.16
65470;DHT22;52067;50.710;14.492;2022-11-20T02:00:17;-7.62;88.60
65470;DHT22;52067;50.710;14.492;2022-11-20T02:02:47;-7.62;88.76
65470;DHT22;52067;50.710;14.492;2022-11-20T02:05:22;-7.68;88.94
65470;DHT22;52067;50.710;14.492;2022-11-20T02:07:49;-7.70;88.84
65470;DHT22;52067;50.710;14.492;2022-11-20T02:10:15;-7.61;90.08
65470;DHT22;52067;50.710;14.492;2022-11-20T02:12:41;-7.53;89.79
65470;DHT22;52067;50.710;14.492;2022-11-20T02:15:25;-7.53;90.11
65470;DHT22;52067;50.710;14.492;2022-11-20T02:17:51;-7.34;89.19
65470;DHT22;52067;50.710;14.492;2022-11-20T02:20:16;-7.51;89.53
65470;DHT22;52067;50.710;14.492;2022-11-20T02:22:50;-7.70;88.70
65470;DHT22;52067;50.710;14.492;2022-11-20T02:25:19;-7.71;89.24
65470;DHT22;52067;50.710;14.492;2022-11-20T02:27:44;-7.68;89.62
65470;DHT22;52067;50.710;14.492;2022-11-20T02:30:10;-7.77;89.62
65470;DHT22;52067;50.710;14.492;2022-11-20T02:32:37;-7.73;89.50
65470;DHT22;52067;50.710;14.492;2022-11-20T02:37:44;-7.40;89.14
65470;DHT22;52067;50.710;14.492;2022-11-20T02:40:10;-7.32;88.51
65470;DHT22;52067;50.710;14.492;2022-11-20T02:42:37;-7.50;87.98
65470;DHT22;52067;50.710;14.492;2022-11-20T02:45:04;-7.29;87.64
65470;DHT22;52067;50.710;14.492;2022-11-20T02:47:29;-7.32;87.24
65470;DHT22;52067;50.710;14.492;2022-11-20T02:49:55;-7.36;87.69
65470;DHT22;52067;50.710;14.492;2022-11-20T02:52:20;-7.26;87.38
65470;DHT22;52067;50.710;14.492;2022-11-20T02:54:45;-7.19;86.94
65470;DHT22;52067;50.710;14.492;2022-11-20T02:57:11;-7.26;86.42
65470;DHT22;52067;50.710;14.492;2022-11-20T02:59:36;-7.23;85.93
65470;DHT22;52067;50.710;14.492;2022-11-20T03:02:01;-7.20;85.78
65470;DHT22;52067;50.710;14.492;2022-11-20T03:04:27;-7.19;85.62
65470;DHT22;52067;50.710;14.492;2022-11-20T03:06:52;-7.54;86.13
65470;DHT22;52067;50.710;14.492;2022-11-20T03:09:18;-7.71;86.64
65470;DHT22;52067;50.710;14.492;2022-11-20T03:11:43;-7.66;87.39
65470;DHT22;52067;50.710;14.492;2022-11-20T03:14:08;-7.77;87.10
65470;DHT22;52067;50.710;14.492;2022-11-20T03:16:34;-7.80;87.91
65470;DHT22;52067;50.710;14.492;2022-11-20T03:19:00;-7.66;87.03
65470;DHT22;52067;50.710;14.492;2022-11-20T03:21:25;-7.88;86.96
65470;DHT22;52067;50.710;14.492;2022-11-20T03:23:53;-7.78;87.39
65470;DHT22;52067;50.710;14.492;2022-11-20T03:26:21;-7.94;87.75
65470;DHT22;52067;50.710;14.492;2022-11-20T03:28:52;-7.71;87.45
65470;DHT22;52067;50.710;14.492;2022-11-20T03:31:20;-7.98;87.51
65470;DHT22;52067;50.710;14.492;2022-11-20T03:33:46;-7.98;88.25
65470;DHT22;52067;50.710;14.492;2022-11-20T03:36:13;-7.89;87.88
65470;DHT22;52067;50.710;14.492;2022-11-20T03:38:40;-7.81;87.60
65470;DHT22;52067;50.710;14.492;2022-11-20T03:41:08;-8.15;87.69
65470;DHT22;52067;50.710;14.492;2022-11-20T03:43:33;-8.09;87.69
65470;DHT22;52067;50.710;14.492;2022-11-20T03:45:59;-8.03;87.72
65470;DHT22;52067;50.710;14.492;2022-11-20T03:48:25;-7.91;87.42
65470;DHT22;52067;50.710;14.492;2022-11-20T03:50:52;-7.78;86.88
65470;DHT22;52067;50.710;14.492;2022-11-20T03:53:18;-7.85;86.52
65470;DHT22;52067;50.710;14.492;2022-11-20T03:55:43;-7.92;86.51
65470;DHT22;52067;50.710;14.492;2022-11-20T03:58:09;-7.92;86.75
65470;DHT22;52067;50.710;14.492;2022-11-20T04:00:35;-7.92;86.82
65470;DHT22;52067;50.710;14.492;2022-11-20T04:03:02;-7.92;87.25
65470;DHT22;52067;50.710;14.492;2022-11-20T04:05:28;-7.78;86.65
65470;DHT22;52067;50.710;14.492;2022-11-20T04:07:53;-7.78;86.63
65470;DHT22;52067;50.710;14.492;2022-11-20T04:10:19;-7.75;86.58
65470;DHT22;52067;50.710;14.492;2022-11-20T04:12:44;-7.80;86.39
65470;DHT22;52067;50.710;14.492;2022-11-20T04:15:10;-7.92;86.56
65470;DHT22;52067;50.710;14.492;2022-11-20T04:17:35;-7.88;86.90
65470;DHT22;52067;50.710;14.492;2022-11-20T04:20:01;-7.71;87.11
65470;DHT22;52067;50.710;14.492;2022-11-20T04:22:27;-7.91;87.54
65470;DHT22;52067;50.710;14.492;2022-11-20T04:24:52;-7.82;88.12
65470;DHT22;52067;50.710;14.492;2022-11-20T04:27:17;-7.88;88.22
65470;DHT22;52067;50.710;14.492;2022-11-20T04:29:43;-7.75;87.78
65470;DHT22;52067;50.710;14.492;2022-11-20T04:32:08;-7.77;87.30
65470;DHT22;52067;50.710;14.492;2022-11-20T04:34:33;-7.74;87.46
65470;DHT22;52067;50.710;14.492;2022-11-20T04:36:59;-7.74;87.34
65470;DHT22;52067;50.710;14.492;2022-11-20T04:39:24;-7.62;87.21
65470;DHT22;52067;50.710;14.492;2022-11-20T04:41:49;-7.68;87.69
65470;DHT22;52067;50.710;14.492;2022-11-20T04:44:35;-7.81;89.46
65470;DHT22;52067;50.710;14.492;2022-11-20T04:47:00;-7.64;89.33
65470;DHT22;52067;50.710;14.492;2022-11-20T04:49:25;-7.60;88.62
65470;DHT22;52067;50.710;14.492;2022-11-20T04:51:53;-7.46;88.49
65470;DHT22;52067;50.710;14.492;2022-11-20T04:54:18;-7.44;88.40
65470;DHT22;52067;50.710;14.492;2022-11-20T04:56:47;-7.40;88.67
65470;DHT22;52067;50.710;14.492;2022-11-20T04:59:12;-7.44;89.12
65470;DHT22;52067;50.710;14.492;2022-11-20T05:01:38;-7.34;89.66
65470;DHT22;52067;50.710;14.492;2022-11-20T05:04:03;-7.34;89.67
65470;DHT22;52067;50.710;14.492;2022-11-20T05:06:29;-7.37;89.65
65470;DHT22;52067;50.710;14.492;2022-11-20T05:08:54;-7.53;89.86
65470;DHT22;52067;50.710;14.492;2022-11-20T05:11:20;-7.60;90.33
65470;DHT22;52067;50.710;14.492;2022-11-20T05:13:46;-7.60;90.61
65470;DHT22;52067;50.710;14.492;2022-11-20T05:16:14;-7.51;90.59
65470;DHT22;52067;50.710;14.492;2022-11-20T05:18:41;-7.58;90.50
65470;DHT22;52067;50.710;14.492;2022-11-20T05:21:07;-7.48;90.35
65470;DHT22;52067;50.710;14.492;2022-11-20T05:23:33;-7.60;90.08
65470;DHT22;52067;50.710;14.492;2022-11-20T05:25:59;-7.71;90.16
65470;DHT22;52067;50.710;14.492;2022-11-20T05:28:26;-7.84;90.28
65470;DHT22;52067;50.710;14.492;2022-11-20T05:30:52;-7.84;90.27
65470;DHT22;52067;50.710;14.492;2022-11-20T05:33:17;-7.75;89.55
65470;DHT22;52067;50.710;14.492;2022-11-20T05:35:43;-7.62;89.27
65470;DHT22;52067;50.710;14.492;2022-11-20T05:38:08;-7.50;88.97
65470;DHT22;52067;50.710;14.492;2022-11-20T05:40:34;-7.37;88.79
65470;DHT22;52067;50.710;14.492;2022-11-20T05:43:00;-7.39;88.42
65470;DHT22;52067;50.710;14.492;2022-11-20T05:45:25;-7.18;88.92
65470;DHT22;52067;50.710;14.492;2022-11-20T05:47:51;-7.15;88.44
65470;DHT22;52067;50.710;14.492;2022-11-20T05:50:16;-6.99;87.83
65470;DHT22;52067;50.710;14.492;2022-11-20T05:52:42;-7.01;87.32
65470;DHT22;52067;50.710;14.492;2022-11-20T05:55:07;-7.01;88.02
65470;DHT22;52067;50.710;14.492;2022-11-20T05:57:33;-7.08;87.93
65470;DHT22;52067;50.710;14.492;2022-11-20T05:59:58;-6.93;88.78
65470;DHT22;52067;50.710;14.492;2022-11-20T06:02:23;-6.70;88.66
65470;DHT22;52067;50.710;14.492;2022-11-20T06:04:49;-6.47;88.14
65470;DHT22;52067;50.710;14.492;2022-11-20T06:07:15;-6.43;88.08
65470;DHT22;52067;50.710;14.492;2022-11-20T06:09:40;-6.44;88.10
65470;DHT22;52067;50.710;14.492;2022-11-20T06:12:06;-6.27;88.14
65470;DHT22;52067;50.710;14.492;2022-11-20T06:14:32;-6.62;88.14
65470;DHT22;52067;50.710;14.492;2022-11-20T06:16:57;-6.60;89.20
65470;DHT22;52067;50.710;14.492;2022-11-20T06:19:23;-6.48;88.29
65470;DHT22;52067;50.710;14.492;2022-11-20T06:21:49;-6.58;89.31
65470;DHT22;52067;50.710;14.492;2022-11-20T06:24:15;-6.30;89.72
65470;DHT22;52067;50.710;14.492;2022-11-20T06:26:40;-6.09;88.59
65470;DHT22;52067;50.710;14.492;2022-11-20T06:29:06;-6.02;87.90
65470;DHT22;52067;50.710;14.492;2022-11-20T06:31:31;-5.98;87.79
65470;DHT22;52067;50.710;14.492;2022-11-20T06:34:03;-5.88;86.99
65470;DHT22;52067;50.710;14.492;2022-11-20T06:36:29;-5.99;86.34
65470;DHT22;52067;50.710;14.492;2022-11-20T06:38:54;-6.14;87.11
65470;DHT22;52067;50.710;14.492;2022-11-20T06:41:21;-5.75;86.35
65470;DHT22;52067;50.710;14.492;2022-11-20T06:43:47;-5.88;85.62
65470;DHT22;52067;50.710;14.492;2022-11-20T06:46:13;-5.83;86.27
65470;DHT22;52067;50.710;14.492;2022-11-20T06:48:39;-5.61;85.54
65470;DHT22;52067;50.710;14.492;2022-11-20T06:51:06;-5.40;85.08
65470;DHT22;52067;50.710;14.492;2022-11-20T06:53:32;-5.51;85.71
65470;DHT22;52067;50.710;14.492;2022-11-20T06:55:58;-5.52;85.55
65470;DHT22;52067;50.710;14.492;2022-11-20T06:58:26;-5.58;85.93
65470;DHT22;52067;50.710;14.492;2022-11-20T07:00:52;-5.58;86.26
65470;DHT22;52067;50.710;14.492;2022-11-20T07:03:17;-5.58;86.77
65470;DHT22;52067;50.710;14.492;2022-11-20T07:05:43;-5.55;86.27
65470;DHT22;52067;50.710;14.492;2022-11-20T07:08:10;-5.48;86.66
65470;DHT22;52067;50.710;14.492;2022-11-20T07:10:35;-5.51;86.95
65470;DHT22;52067;50.710;14.492;2022-11-20T07:13:01;-5.19;87.54
65470;DHT22;52067;50.710;14.492;2022-11-20T07:15:26;-5.04;86.30
65470;DHT22;52067;50.710;14.492;2022-11-20T07:17:52;-5.12;85.65
65470;DHT22;52067;50.710;14.492;2022-11-20T07:20:17;-5.30;86.68
65470;DHT22;52067;50.710;14.492;2022-11-20T07:22:43;-5.10;86.28
65470;DHT22;52067;50.710;14.492;2022-11-20T07:25:09;-5.23;88.06
65470;DHT22;52067;50.710;14.492;2022-11-20T07:27:35;-5.04;86.95
65470;DHT22;52067;50.710;14.492;2022-11-20T07:30:02;-4.86;86.40
65470;DHT22;52067;50.710;14.492;2022-11-20T07:32:27;-4.86;86.06
65470;DHT22;52067;50.710;14.492;2022-11-20T07:34:53;-5.06;87.25
65470;DHT22;52067;50.710;14.492;2022-11-20T07:37:18;-4.79;86.57
65470;DHT22;52067;50.710;14.492;2022-11-20T07:39:43;-4.96;86.20
65470;DHT22;52067;50.710;14.492;2022-11-20T07:42:09;-5.13;86.94
65470;DHT22;52067;50.710;14.492;2022-11-20T07:44:35;-4.83;86.30
65470;DHT22;52067;50.710;14.492;2022-11-20T07:47:01;-4.93;86.16
65470;DHT22;52067;50.710;14.492;2022-11-20T07:49:26;-4.73;86.09
65470;DHT22;52067;50.710;14.492;2022-11-20T07:51:52;-5.00;86.42
65470;DHT22;52067;50.710;14.492;2022-11-20T07:54:21;-4.58;86.71
65470;DHT22;52067;50.710;14.492;2022-11-20T07:56:47;-4.58;85.52
65470;DHT22;52067;50.710;14.492;2022-11-20T07:59:12;-4.50;85.22
65470;DHT22;52067;50.710;14.492;2022-11-20T08:01:39;-4.64;85.76
65470;DHT22;52067;50.710;14.492;2022-11-20T08:04:05;-4.61;85.76
65470;DHT22;52067;50.710;14.492;2022-11-20T08:06:30;-4.40;85.07
65470;DHT22;52067;50.710;14.492;2022-11-20T08:08:56;-4.35;84.65
65470;DHT22;52067;50.710;14.492;2022-11-20T08:11:21;-4.21;85.57
65470;DHT22;52067;50.710;14.492;2022-11-20T08:14:05;-4.00;85.25
65470;DHT22;52067;50.710;14.492;2022-11-20T08:16:36;-3.78;84.45
65470;DHT22;52067;50.710;14.492;2022-11-20T08:19:02;-3.96;83.61
65470;DHT22;52067;50.710;14.492;2022-11-20T08:21:27;-4.14;85.94
65470;DHT22;52067;50.710;14.492;2022-11-20T08:23:53;-4.17;86.98
65470;DHT22;52067;50.710;14.492;2022-11-20T08:26:18;-4.10;85.50
65470;DHT22;52067;50.710;14.492;2022-11-20T08:28:43;-3.93;84.85
65470;DHT22;52067;50.710;14.492;2022-11-20T08:31:09;-3.81;84.81
65470;DHT22;52067;50.710;14.492;2022-11-20T08:33:35;-3.65;84.53
65470;DHT22;52067;50.710;14.492;2022-11-20T08:36:02;-3.54;84.51
65470;DHT22;52067;50.710;14.492;2022-11-20T08:38:28;-3.54;83.80
65470;DHT22;52067;50.710;14.492;2022-11-20T08:41:01;-3.73;83.31
65470;DHT22;52067;50.710;14.492;2022-11-20T08:43:50;-3.47;83.34
65470;DHT22;52067;50.710;14.492;2022-11-20T08:46:16;-3.54;84.35
65470;DHT22;52067;50.710;14.492;2022-11-20T08:48:41;-3.61;84.23
65470;DHT22;52067;50.710;14.492;2022-11-20T08:51:07;-3.34;83.58
65470;DHT22;52067;50.710;14.492;2022-11-20T08:53:32;-3.23;82.54
65470;DHT22;52067;50.710;14.492;2022-11-20T08:55:57;-3.34;83.42
65470;DHT22;52067;50.710;14.492;2022-11-20T08:58:23;-3.34;83.60
65470;DHT22;52067;50.710;14.492;2022-11-20T09:00:49;-3.38;83.71
65470;DHT22;52067;50.710;14.492;2022-11-20T09:03:14;-3.81;85.24
65470;DHT22;52067;50.710;14.492;2022-11-20T09:05:40;-3.50;85.15
65470;DHT22;52067;50.710;14.492;2022-11-20T09:08:05;-3.66;85.88
65470;DHT22;52067;50.710;14.492;2022-11-20T09:10:31;-3.52;86.26
65470;DHT22;52067;50.710;14.492;2022-11-20T09:12:57;-3.47;85.44
65470;DHT22;52067;50.710;14.492;2022-11-20T09:15:23;-3.23;84.89
65470;DHT22;52067;50.710;14.492;2022-11-20T09:20:17;-3.35;84.97
65470;DHT22;52067;50.710;14.492;2022-11-20T09:22:44;-3.06;84.02
65470;DHT22;52067;50.710;14.492;2022-11-20T09:25:09;-3.28;84.79
65470;DHT22;52067;50.710;14.492;2022-11-20T09:27:35;-3.11;84.66
65470;DHT22;52067;50.710;14.492;2022-11-20T09:30:01;-3.18;84.12
65470;DHT22;52067;50.710;14.492;2022-11-20T09:32:26;-3.20;84.39
65470;DHT22;52067;50.710;14.492;2022-11-20T09:34:51;-3.17;84.41
65470;DHT22;52067;50.710;14.492;2022-11-20T09:37:17;-3.34;84.70
65470;DHT22;52067;50.710;14.492;2022-11-20T09:39:42;-3.18;85.49
65470;DHT22;52067;50.710;14.492;2022-11-20T09:42:27;-3.07;84.92
65470;DHT22;52067;50.710;14.492;2022-11-20T09:45:30;-3.20;84.67
65470;DHT22;52067;50.710;14.492;2022-11-20T09:51:23;-3.04;84.18
65470;DHT22;52067;50.710;14.492;2022-11-20T09:54:13;-2.79;83.37
65470;DHT22;52067;50.710;14.492;2022-11-20T09:56:43;-2.92;83.50
65470;DHT22;52067;50.710;14.492;2022-11-20T09:59:26;-2.86;83.30
65470;DHT22;52067;50.710;14.492;2022-11-20T10:01:54;-2.49;82.78
65470;DHT22;52067;50.710;14.492;2022-11-20T10:04:20;-2.23;82.07
65470;DHT22;52067;50.710;14.492;2022-11-20T10:07:11;-2.31;81.76
65470;DHT22;52067;50.710;14.492;2022-11-20T10:09:40;-2.25;82.16
65470;DHT22;52067;50.710;14.492;2022-11-20T10:30:30;-2.40;84.78
65470;DHT22;52067;50.710;14.492;2022-11-20T10:33:03;-2.40;85.64
65470;DHT22;52067;50.710;14.492;2022-11-20T10:35:40;-2.18;83.64
65470;DHT22;52067;50.710;14.492;2022-11-20T10:38:23;-2.44;87.18
65470;DHT22;52067;50.710;14.492;2022-11-20T10:41:01;-2.01;85.50
65470;DHT22;52067;50.710;14.492;2022-11-20T10:43:48;-1.94;85.83
65470;DHT22;52067;50.710;14.492;2022-11-20T10:46:18;-2.03;85.54
65470;DHT22;52067;50.710;14.492;2022-11-20T10:48:46;-2.21;84.33
65470;DHT22;52067;50.710;14.492;2022-11-20T10:53:58;-2.00;85.32
65470;DHT22;52067;50.710;14.492;2022-11-20T10:56:46;-2.10;86.36
65470;DHT22;52067;50.710;14.492;2022-11-20T11:01:58;-1.97;84.67
65470;DHT22;52067;50.710;14.492;2022-11-20T11:04:38;-1.76;83.34
65470;DHT22;52067;50.710;14.492;2022-11-20T11:07:20;-1.51;82.90
65470;DHT22;52067;50.710;14.492;2022-11-20T11:09:50;-1.87;84.08
65470;DHT22;52067;50.710;14.492;2022-11-20T11:12:17;-1.82;83.61
65470;DHT22;52067;50.710;14.492;2022-11-20T11:14:45;-1.55;83.06
65470;DHT22;52067;50.710;14.492;2022-11-20T11:17:37;-1.39;83.03
65470;DHT22;52067;50.710;14.492;2022-11-20T11:22:44;-1.14;84.35
65470;DHT22;52067;50.710;14.492;2022-11-20T11:25:20;-1.00;83.40
65470;DHT22;52067;50.710;14.492;2022-11-20T11:27:49;-0.96;83.40
65470;DHT22;52067;50.710;14.492;2022-11-20T11:30:17;-0.74;83.44
65470;DHT22;52067;50.710;14.492;2022-11-20T11:32:43;-0.84;82.11
65470;DHT22;52067;50.710;14.492;2022-11-20T11:35:22;-0.81;82.26
65470;DHT22;52067;50.710;14.492;2022-11-20T11:37:48;-0.87;82.34
65470;DHT22;52067;50.710;14.492;2022-11-20T11:40:17;-1.01;82.28
65470;DHT22;52067;50.710;14.492;2022-11-20T11:42:45;-1.22;82.04
65470;DHT22;52067;50.710;14.492;2022-11-20T11:45:15;-1.45;82.95
65470;DHT22;52067;50.710;14.492;2022-11-20T11:50:27;-1.32;83.00
65470;DHT22;52067;50.710;14.492;2022-11-20T11:58:18;-1.24;84.31
65470;DHT22;52067;50.710;14.492;2022-11-20T12:00:51;-1.24;82.88
65470;DHT22;52067;50.710;14.492;2022-11-20T12:03:27;-1.08;82.34
65470;DHT22;52067;50.710;14.492;2022-11-20T12:06:13;-1.01;81.94
65470;DHT22;52067;50.710;14.492;2022-11-20T12:08:53;-1.65;85.20
65470;DHT22;52067;50.710;14.492;2022-11-20T12:11:58;-1.67;86.07
65470;DHT22;52067;50.710;14.492;2022-11-20T12:14:32;-1.90;86.20
65470;DHT22;52067;50.710;14.492;2022-11-20T12:17:00;-1.59;85.87
65470;DHT22;52067;50.710;14.492;2022-11-20T12:19:28;-1.28;85.33
65470;DHT22;52067;50.710;14.492;2022-11-20T12:22:14;-1.25;84.14
65470;DHT22;52067;50.710;14.492;2022-11-20T12:25:02;-1.15;84.42
65470;DHT22;52067;50.710;14.492;2022-11-20T12:27:38;-1.22;83.85
65470;DHT22;52067;50.710;14.492;2022-11-20T12:30:16;-1.00;83.17
65470;DHT22;52067;50.710;14.492;2022-11-20T12:32:55;-0.97;82.67
65470;DHT22;52067;50.710;14.492;2022-11-20T12:43:47;-1.05;84.70
65470;DHT22;52067;50.710;14.492;2022-11-20T12:49:12;-1.14;85.35
65470;DHT22;52067;50.710;14.492;2022-11-20T12:51:50;-1.05;85.02
65470;DHT22;52067;50.710;14.492;2022-11-20T13:00:21;-1.01;84.45
65470;DHT22;52067;50.710;14.492;2022-11-20T13:03:09;-1.22;86.38
65470;DHT22;52067;50.710;14.492;2022-11-20T13:05:52;-1.00;85.83
65470;DHT22;52067;50.710;14.492;2022-11-20T13:08:23;-1.01;85.60
65470;DHT22;52067;50.710;14.492;2022-11-20T13:10:55;-0.86;85.00
65470;DHT22;52067;50.710;14.492;2022-11-20T13:19:04;-0.59;84.11
65470;DHT22;52067;50.710;14.492;2022-11-20T13:21:39;-0.52;84.19
65470;DHT22;52067;50.710;14.492;2022-11-20T13:24:18;-0.48;83.97
65470;DHT22;52067;50.710;14.492;2022-11-20T13:26:45;-0.62;84.07
65470;DHT22;52067;50.710;14.492;2022-11-20T13:29:16;-0.63;84.46
65470;DHT22;52067;50.710;14.492;2022-11-20T13:31:44;-0.66;84.39
65470;DHT22;52067;50.710;14.492;2022-11-20T13:34:24;-0.62;84.06
65470;DHT22;52067;50.710;14.492;2022-11-20T13:36:52;-0.52;84.38
65470;DHT22;52067;50.710;14.492;2022-11-20T13:39:29;-0.43;84.07
65470;DHT22;52067;50.710;14.492;2022-11-20T13:41:57;-0.43;84.04
65470;DHT22;52067;50.710;14.492;2022-11-20T13:46:57;-0.43;84.15
65470;DHT22;52067;50.710;14.492;2022-11-20T13:49:30;-0.40;83.92
65470;DHT22;52067;50.710;14.492;2022-11-20T14:01:55;-0.77;86.67
65470;DHT22;52067;50.710;14.492;2022-11-20T14:04:30;-0.40;85.38
65470;DHT22;52067;50.710;14.492;2022-11-20T14:06:58;-0.26;84.37
65470;DHT22;52067;50.710;14.492;2022-11-20T14:09:29;-0.15;83.51
65470;DHT22;52067;50.710;14.492;2022-11-20T14:11:55;-0.36;84.64
65470;DHT22;52067;50.710;14.492;2022-11-20T14:14:24;-0.48;85.37
65470;DHT22;52067;50.710;14.492;2022-11-20T14:16:50;-0.43;84.46
65470;DHT22;52067;50.710;14.492;2022-11-20T14:21:52;-0.66;86.13
65470;DHT22;52067;50.710;14.492;2022-11-20T14:24:23;-0.65;85.99
65470;DHT22;52067;50.710;14.492;2022-11-20T14:26:49;-0.98;87.19
65470;DHT22;52067;50.710;14.492;2022-11-20T14:29:21;-0.97;88.20
65470;DHT22;52067;50.710;14.492;2022-11-20T14:31:50;-0.81;87.87
65470;DHT22;52067;50.710;14.492;2022-11-20T14:34:28;-0.56;86.75
65470;DHT22;52067;50.710;14.492;2022-11-20T14:36:59;-0.76;86.52
65470;DHT22;52067;50.710;14.492;2022-11-20T14:39:33;-0.66;87.01
65470;DHT22;52067;50.710;14.492;2022-11-20T14:41:59;-0.76;86.76
65470;DHT22;52067;50.710;14.492;2022-11-20T14:44:31;-0.66;86.75
65470;DHT22;52067;50.710;14.492;2022-11-20T14:46:59;-0.84;87.01
65470;DHT22;52067;50.710;14.492;2022-11-20T14:49:25;-0.93;87.63
65470;DHT22;52067;50.710;14.492;2022-11-20T14:52:02;-0.80;87.01
65470;DHT22;52067;50.710;14.492;2022-11-20T14:54:27;-0.94;87.67
65470;DHT22;52067;50.710;14.492;2022-11-20T14:56:59;-1.11;88.71
65470;DHT22;52067;50.710;14.492;2022-11-20T14:59:30;-0.97;88.36
65470;DHT22;52067;50.710;14.492;2022-11-20T15:02:02;-0.87;87.26
65470;DHT22;52067;50.710;14.492;2022-11-20T15:04:28;-1.08;88.70
65470;DHT22;52067;50.710;14.492;2022-11-20T15:06:55;-1.07;88.76
65470;DHT22;52067;50.710;14.492;2022-11-20T15:09:21;-1.09;88.92
65470;DHT22;52067;50.710;14.492;2022-11-20T15:11:57;-1.21;89.26
65470;DHT22;52067;50.710;14.492;2022-11-20T15:14:24;-1.15;89.08
65470;DHT22;52067;50.710;14.492;2022-11-20T15:16:51;-1.09;89.00
65470;DHT22;52067;50.710;14.492;2022-11-20T15:19:19;-1.21;89.13
65470;DHT22;52067;50.710;14.492;2022-11-20T15:21:45;-1.12;89.34
65470;DHT22;52067;50.710;14.492;2022-11-20T15:24:11;-1.08;89.25
65470;DHT22;52067;50.710;14.492;2022-11-20T15:26:37;-1.08;89.13
65470;DHT22;52067;50.710;14.492;2022-11-20T15:29:05;-1.14;89.16
65470;DHT22;52067;50.710;14.492;2022-11-20T15:31:32;-0.98;88.78
65470;DHT22;52067;50.710;14.492;2022-11-20T15:33:58;-0.93;88.55
65470;DHT22;52067;50.710;14.492;2022-11-20T15:36:23;-0.76;88.11
65470;DHT22;52067;50.710;14.492;2022-11-20T15:38:48;-0.94;87.69
65470;DHT22;52067;50.710;14.492;2022-11-20T15:41:14;-0.80;88.47
65470;DHT22;52067;50.710;14.492;2022-11-20T15:43:39;-0.63;87.52
65470;DHT22;52067;50.710;14.492;2022-11-20T15:46:06;-0.50;86.53
65470;DHT22;52067;50.710;14.492;2022-11-20T15:48:44;-0.43;85.72
65470;DHT22;52067;50.710;14.492;2022-11-20T15:53:36;-0.43;86.28
65470;DHT22;52067;50.710;14.492;2022-11-20T15:56:03;-0.32;85.67
65470;DHT22;52067;50.710;14.492;2022-11-20T15:58:28;-0.28;85.47
65470;DHT22;52067;50.710;14.492;2022-11-20T16:00:54;-0.28;85.49
65470;DHT22;52067;50.710;14.492;2022-11-20T16:03:19;-0.39;85.62
65470;DHT22;52067;50.710;14.492;2022-11-20T16:05:45;-0.65;86.33
65470;DHT22;52067;50.710;14.492;2022-11-20T16:08:10;-0.81;87.96
65470;DHT22;52067;50.710;14.492;2022-11-20T16:10:36;-0.57;87.69
65470;DHT22;52067;50.710;14.492;2022-11-20T16:13:02;-1.04;88.10
65470;DHT22;52067;50.710;14.492;2022-11-20T16:15:51;-0.97;88.37
65470;DHT22;52067;50.710;14.492;2022-11-20T16:18:19;-0.70;87.91
65470;DHT22;52067;50.710;14.492;2022-11-20T16:20:47;-0.56;87.01
65470;DHT22;52067;50.710;14.492;2022-11-20T16:23:13;-0.53;86.53
65470;DHT22;52067;50.710;14.492;2022-11-20T16:25:38;-0.57;87.27
65470;DHT22;52067;50.710;14.492;2022-11-20T16:28:04;-0.48;86.49
65470;DHT22;52067;50.710;14.492;2022-11-20T16:30:31;-0.56;86.44
65470;DHT22;52067;50.710;14.492;2022-11-20T16:32:58;-0.88;87.54
65470;DHT22;52067;50.710;14.492;2022-11-20T16:35:25;-1.18;89.37
65470;DHT22;52067;50.710;14.492;2022-11-20T16:37:50;-1.11;89.52
65470;DHT22;52067;50.710;14.492;2022-11-20T16:40:16;-1.18;88.96
65470;DHT22;52067;50.710;14.492;2022-11-20T16:42:41;-1.00;89.04
65470;DHT22;52067;50.710;14.492;2022-11-20T16:45:07;-1.24;88.64
65470;DHT22;52067;50.710;14.492;2022-11-20T16:47:35;-1.60;90.03